createdAt,value
2018-02-21T00:01:04.951Z,25.80
2018-02-21T00:03:35.730Z,26.70
2018-02-21T00:06:06.542Z,26.67
2018-02-21T00:08:37.373Z,25.40
2018-02-21T00:11:09.241Z,28.30
2018-02-21T00:13:40.055Z,26.08
2018-02-21T00:16:10.887Z,24.23
2018-02-21T00:18:41.714Z,24.07
2018-02-21T00:21:12.559Z,26.70
2018-02-21T00:23:43.351Z,28.77
2018-02-21T00:26:14.175Z,24.03
2018-02-21T00:28:44.992Z,27.80
2018-02-21T00:31:15.866Z,27.13
2018-02-21T00:33:46.699Z,24.73
2018-02-21T00:36:17.507Z,25.97
2018-02-21T00:38:48.335Z,27.10
2018-02-21T00:41:19.152Z,25.40
2018-02-21T00:43:49.920Z,29.07
2018-02-21T00:46:20.745Z,27.20
2018-02-21T00:48:51.517Z,29.27
2018-02-21T00:51:22.347Z,27.63
2018-02-21T00:53:53.250Z,26.07
2018-02-21T00:56:24.120Z,25.90
2018-02-21T00:58:54.922Z,26.77
2018-02-21T01:01:25.765Z,27.20
2018-02-21T01:03:56.573Z,29.20
2018-02-21T01:06:27.420Z,28.40
2018-02-21T01:08:58.254Z,29.10
2018-02-21T01:11:29.088Z,28.67
2018-02-21T01:13:59.894Z,27.60
2018-02-21T01:16:30.730Z,26.37
2018-02-21T01:19:01.524Z,28.97
2018-02-21T01:21:32.349Z,27.87
2018-02-21T01:24:03.182Z,26.47
2018-02-21T01:26:34.004Z,29.17
2018-02-21T01:29:04.824Z,29.53
2018-02-21T01:31:35.654Z,27.57
2018-02-21T01:34:06.530Z,27.07
2018-02-21T01:36:37.403Z,26.60
2018-02-21T01:39:08.213Z,26.97
2018-02-21T01:41:39.052Z,26.23
2018-02-21T01:44:09.851Z,28.03
2018-02-21T01:46:40.714Z,30.63
2018-02-21T01:49:11.514Z,25.87
2018-02-21T01:51:42.317Z,28.10
2018-02-21T01:54:13.146Z,27.10
2018-02-21T01:56:44.006Z,27.80
2018-02-21T01:59:14.809Z,31.73
2018-02-21T02:01:46.451Z,31.80
2018-02-21T02:04:17.289Z,28.35
2018-02-21T02:06:48.121Z,29.53
2018-02-21T02:09:18.934Z,29.50
2018-02-21T02:11:49.779Z,31.00
2018-02-21T02:14:20.584Z,29.77
2018-02-21T02:16:51.405Z,29.27
2018-02-21T02:19:22.225Z,29.40
2018-02-21T02:21:53.114Z,27.93
2018-02-21T02:24:23.960Z,27.90
2018-02-21T02:26:54.860Z,29.90
2018-02-21T02:29:25.679Z,30.33
2018-02-21T02:31:56.513Z,30.37
2018-02-21T02:34:27.319Z,29.13
2018-02-21T02:36:58.197Z,32.77
2018-02-21T02:39:41.254Z,32.30
2018-02-21T02:42:12.053Z,29.20
2018-02-21T02:44:42.862Z,29.70
2018-02-21T02:47:13.747Z,32.30
2018-02-21T02:49:44.555Z,28.80
2018-02-21T02:52:15.388Z,29.73
2018-02-21T02:54:46.205Z,30.90
2018-02-21T02:57:17.033Z,29.90
2018-02-21T02:59:47.857Z,28.57
2018-02-21T03:02:18.669Z,29.80
2018-02-21T03:04:49.503Z,29.80
2018-02-21T03:07:20.348Z,29.20
2018-02-21T03:09:51.177Z,31.10
2018-02-21T03:12:22.025Z,32.20
2018-02-21T03:14:52.869Z,29.07
2018-02-21T03:17:23.698Z,28.40
2018-02-21T03:19:54.538Z,28.73
2018-02-21T03:22:25.371Z,29.97
2018-02-21T03:24:56.198Z,31.93
2018-02-21T03:27:27.061Z,30.30
2018-02-21T03:29:57.902Z,29.43
2018-02-21T03:32:28.770Z,29.37
2018-02-21T03:34:59.597Z,30.40
2018-02-21T03:37:30.450Z,30.27
2018-02-21T03:40:01.250Z,28.93
2018-02-21T03:42:32.096Z,30.17
2018-02-21T03:45:02.930Z,30.63
2018-02-21T03:47:33.782Z,29.80
2018-02-21T03:50:04.644Z,31.97
2018-02-21T03:52:35.757Z,32.03
2018-02-21T03:55:06.566Z,30.40
2018-02-21T03:57:37.377Z,29.33
2018-02-21T04:00:08.178Z,28.30
2018-02-21T04:02:39.298Z,27.83
2018-02-21T04:05:10.542Z,30.02
2018-02-21T04:07:41.407Z,29.55
2018-02-21T04:10:12.242Z,30.33
2018-02-21T04:12:43.081Z,29.80
2018-02-21T04:15:13.910Z,31.10
2018-02-21T04:17:44.808Z,30.00
2018-02-21T04:20:15.644Z,29.23
2018-02-21T04:22:46.477Z,29.73
2018-02-21T04:25:17.289Z,29.57
2018-02-21T04:27:48.416Z,31.30
2018-02-21T04:30:19.214Z,31.80
2018-02-21T04:32:52.004Z,31.83
2018-02-21T04:35:22.828Z,33.33
2018-02-21T04:37:53.670Z,32.70
2018-02-21T04:40:24.479Z,31.17
2018-02-21T04:42:55.292Z,30.07
2018-02-21T04:45:26.136Z,28.67
2018-02-21T04:47:56.994Z,30.33
2018-02-21T04:50:27.837Z,28.43
2018-02-21T04:52:58.698Z,28.33
2018-02-21T04:55:31.471Z,30.50
2018-02-21T04:58:08.315Z,29.45
2018-02-21T05:00:39.398Z,30.73
2018-02-21T05:03:10.204Z,31.87
2018-02-21T05:05:41.090Z,29.87
2018-02-21T05:08:12.302Z,32.93
2018-02-21T05:10:43.143Z,31.80
2018-02-21T05:13:13.989Z,32.47
2018-02-21T05:15:44.821Z,31.67
2018-02-21T05:18:15.942Z,31.83
2018-02-21T05:20:46.732Z,34.15
2018-02-21T05:23:17.547Z,32.40
2018-02-21T05:25:48.324Z,32.83
2018-02-21T05:28:19.166Z,33.30
2018-02-21T05:30:50.675Z,31.73
2018-02-21T05:33:21.499Z,31.33
2018-02-21T05:35:52.343Z,31.00
2018-02-21T05:38:23.174Z,30.20
2018-02-21T05:40:54.000Z,30.87
2018-02-21T05:43:25.161Z,31.03
2018-02-21T05:45:55.943Z,31.10
2018-02-21T05:48:26.795Z,31.60
2018-02-21T05:50:57.575Z,31.83
2018-02-21T05:53:28.410Z,31.43
2018-02-21T05:55:59.250Z,31.97
2018-02-21T05:58:30.110Z,34.00
2018-02-21T06:01:01.446Z,34.13
2018-02-21T06:03:32.286Z,32.42
2018-02-21T06:06:03.084Z,34.17
2018-02-21T06:08:33.915Z,32.07
2018-02-21T06:11:04.685Z,33.60
2018-02-21T06:13:35.469Z,35.00
2018-02-21T06:16:06.248Z,34.33
2018-02-21T06:18:37.068Z,33.23
2018-02-21T06:21:07.825Z,32.50
2018-02-21T06:23:38.613Z,34.20
2018-02-21T06:26:09.412Z,34.80
2018-02-21T06:28:40.204Z,32.10
2018-02-21T06:31:10.994Z,36.70
2018-02-21T06:33:41.760Z,32.63
2018-02-21T06:36:12.539Z,32.33
2018-02-21T06:38:43.540Z,33.70
2018-02-21T06:41:15.343Z,33.22
2018-02-21T06:43:46.129Z,32.50
2018-02-21T06:46:16.897Z,31.37
2018-02-21T06:48:47.742Z,35.80
2018-02-21T06:51:18.614Z,34.80
2018-02-21T06:53:49.456Z,36.37
2018-02-21T06:56:21.289Z,34.07
2018-02-21T06:58:52.076Z,35.65
2018-02-21T07:01:22.836Z,35.10
2018-02-21T07:03:53.613Z,36.03
2018-02-21T07:06:24.375Z,35.90
2018-02-21T07:08:56.208Z,33.90
2018-02-21T07:11:26.960Z,33.40
2018-02-21T07:13:57.754Z,33.80
2018-02-21T07:16:28.498Z,33.57
2018-02-21T07:18:59.343Z,30.70
2018-02-21T07:21:30.088Z,30.97
2018-02-21T07:24:00.836Z,32.43
2018-02-21T07:26:31.592Z,33.70
2018-02-21T07:29:02.348Z,32.50
2018-02-21T07:31:33.097Z,33.73
2018-02-21T07:34:03.861Z,31.20
2018-02-21T07:36:34.588Z,31.70
2018-02-21T07:39:05.364Z,32.50
2018-02-21T07:41:36.316Z,33.47
2018-02-21T07:44:07.145Z,33.85
2018-02-21T07:46:38.079Z,31.87
2018-02-21T07:49:09.079Z,30.57
2018-02-21T07:51:40.046Z,35.33
2018-02-21T07:54:11.064Z,33.60
2018-02-21T07:56:42.021Z,34.08
2018-02-21T07:59:13.028Z,33.80
2018-02-21T08:01:43.992Z,34.40
2018-02-21T08:04:16.004Z,35.25
2018-02-21T08:06:46.966Z,30.40
2018-02-21T08:09:18.033Z,33.80
2018-02-21T08:11:48.966Z,31.85
2018-02-21T08:14:19.934Z,31.20
2018-02-21T08:16:51.927Z,32.05
2018-02-21T08:19:22.977Z,32.03
2018-02-21T08:21:53.961Z,32.17
2018-02-21T08:24:24.954Z,31.20
2018-02-21T08:26:56.250Z,30.02
2018-02-21T08:29:27.242Z,30.67
2018-02-21T08:31:58.187Z,28.35
2018-02-21T08:34:29.167Z,30.83
2018-02-21T08:36:59.930Z,30.33
2018-02-21T08:39:30.895Z,32.17
2018-02-21T08:42:01.837Z,32.22
2018-02-21T08:44:32.826Z,32.40
2018-02-21T08:47:03.796Z,33.20
2018-02-21T08:49:34.777Z,31.37
2018-02-21T08:52:06.861Z,27.13
2018-02-21T08:54:37.851Z,30.08
2018-02-21T08:57:08.820Z,29.98
2018-02-21T08:59:39.783Z,31.27
2018-02-21T09:02:11.799Z,32.35
2018-02-21T09:04:42.836Z,28.98
2018-02-21T09:07:13.830Z,31.10
2018-02-21T09:09:44.876Z,32.55
2018-02-21T09:12:15.862Z,33.95
2018-02-21T09:14:46.828Z,31.40
2018-02-21T09:17:17.797Z,30.97
2018-02-21T09:19:48.801Z,29.50
2018-02-21T09:22:19.808Z,31.77
2018-02-21T09:24:55.349Z,29.23
2018-02-21T09:27:26.389Z,30.50
2018-02-21T09:29:57.364Z,31.65
2018-02-21T09:32:28.327Z,26.95
2018-02-21T09:34:59.297Z,27.73
2018-02-21T09:37:42.828Z,29.60
2018-02-21T09:40:13.935Z,26.70
2018-02-21T09:42:45.007Z,22.73
2018-02-21T09:45:15.995Z,22.17
2018-02-21T09:47:46.966Z,24.10
2018-02-21T09:50:17.920Z,25.35
2018-02-21T09:52:48.880Z,23.03
2018-02-21T09:55:23.652Z,24.03
2018-02-21T09:57:54.613Z,23.50
2018-02-21T10:00:25.600Z,19.80
2018-02-21T10:02:57.352Z,20.85
2018-02-21T10:05:28.376Z,22.42
2018-02-21T10:07:59.417Z,22.02
2018-02-21T10:10:30.431Z,16.90
2018-02-21T10:13:01.397Z,22.17
2018-02-21T10:15:32.382Z,20.23
2018-02-21T10:18:03.325Z,21.45
2018-02-21T10:20:34.335Z,20.87
2018-02-21T10:23:05.252Z,23.15
2018-02-21T10:25:36.237Z,21.53
2018-02-21T10:28:15.309Z,20.25
2018-02-21T10:30:46.301Z,20.80
2018-02-21T10:33:17.258Z,23.02
2018-02-21T10:35:48.237Z,20.43
2018-02-21T10:38:19.243Z,20.77
2018-02-21T10:40:50.262Z,20.58
2018-02-21T10:43:21.202Z,19.80
2018-02-21T10:46:03.768Z,19.53
2018-02-21T10:48:40.305Z,18.60
2018-02-21T10:51:11.102Z,20.50
2018-02-21T10:53:41.857Z,17.77
2018-02-21T10:56:12.653Z,20.77
2018-02-21T10:58:44.429Z,20.77
2018-02-21T11:01:21.225Z,21.40
2018-02-21T11:03:51.969Z,20.50
2018-02-21T11:06:22.740Z,21.33
2018-02-21T11:08:53.492Z,19.43
2018-02-21T11:11:24.273Z,19.73
2018-02-21T11:13:55.044Z,18.87
2018-02-21T11:16:25.817Z,18.73
2018-02-21T11:24:56.085Z,21.45
2018-02-21T11:27:26.893Z,20.48
2018-02-21T11:30:04.104Z,20.07
2018-02-21T11:32:41.678Z,17.87
2018-02-21T11:35:16.013Z,20.77
2018-02-21T11:37:46.813Z,17.55
2018-02-21T11:40:21.410Z,20.50
2018-02-21T11:48:57.710Z,19.60
2018-02-21T11:51:28.562Z,19.00
2018-02-21T11:53:59.435Z,19.67
2018-02-21T11:56:30.268Z,18.90
2018-02-21T11:59:01.085Z,19.30
2018-02-21T12:01:31.866Z,18.53
2018-02-21T12:04:02.714Z,16.83
2018-02-21T12:06:33.519Z,15.83
2018-02-21T12:09:04.329Z,14.97
2018-02-21T12:11:35.147Z,16.93
2018-02-21T12:14:06.024Z,13.90
2018-02-21T12:16:36.819Z,14.60
2018-02-21T12:19:07.694Z,15.07
2018-02-21T12:21:38.523Z,15.20
2018-02-21T12:24:09.330Z,15.80
2018-02-21T12:26:40.171Z,15.53
2018-02-21T12:29:11.938Z,14.60
2018-02-21T12:31:44.956Z,17.00
2018-02-21T12:34:15.773Z,16.70
2018-02-21T12:36:46.624Z,15.87
2018-02-21T12:39:23.557Z,16.73
2018-02-21T12:41:54.440Z,17.95
2018-02-21T12:44:25.280Z,17.43
2018-02-21T12:46:56.144Z,16.13
2018-02-21T12:49:27.009Z,18.03
2018-02-21T12:51:57.852Z,18.27
2018-02-21T12:54:28.725Z,15.93
2018-02-21T12:56:59.566Z,17.53
2018-02-21T12:59:30.448Z,16.37
2018-02-21T13:02:01.257Z,16.10
2018-02-21T13:04:32.186Z,12.33
2018-02-21T13:07:02.994Z,13.50
2018-02-21T13:09:33.913Z,13.13
2018-02-21T13:12:04.746Z,12.30
2018-02-21T13:14:35.617Z,13.20
2018-02-21T13:17:06.457Z,12.70
2018-02-21T13:19:37.306Z,11.93
2018-02-21T13:22:08.268Z,12.13
2018-02-21T13:24:39.108Z,14.20
2018-02-21T13:27:09.957Z,11.97
2018-02-21T13:29:40.970Z,13.73
2018-02-21T13:32:11.798Z,13.20
2018-02-21T13:34:42.764Z,13.10
2018-02-21T13:37:13.721Z,13.43
2018-02-21T13:39:45.358Z,13.87
2018-02-21T13:42:16.203Z,12.25
2018-02-21T13:44:47.162Z,11.90
2018-02-21T13:47:18.128Z,11.37
2018-02-21T13:49:49.041Z,13.53
2018-02-21T13:52:20.596Z,12.20
2018-02-21T13:54:51.431Z,11.70
2018-02-21T13:57:22.331Z,11.63
2018-02-21T13:59:53.198Z,10.67
2018-02-21T14:02:24.039Z,10.50
2018-02-21T14:04:55.964Z,11.27
2018-02-21T14:07:26.873Z,11.45
2018-02-21T14:09:57.845Z,12.13
2018-02-21T14:12:28.789Z,11.43
2018-02-21T14:14:59.724Z,14.17
2018-02-21T14:17:30.586Z,15.00
2018-02-21T14:20:01.498Z,13.13
2018-02-21T14:22:32.369Z,15.17
2018-02-21T14:25:03.243Z,14.10
2018-02-21T14:27:34.177Z,14.50
2018-02-21T14:30:05.054Z,14.17
2018-02-21T14:32:35.912Z,15.57
2018-02-21T14:35:06.752Z,14.70
2018-02-21T14:37:37.590Z,14.43
2018-02-21T14:40:08.465Z,15.33
2018-02-21T14:42:39.517Z,14.60
2018-02-21T14:45:10.422Z,14.90
2018-02-21T14:47:41.409Z,14.77
2018-02-21T14:50:12.358Z,15.57
2018-02-21T14:52:43.245Z,15.40
2018-02-21T14:55:14.094Z,15.63
2018-02-21T14:57:44.985Z,16.00
2018-02-21T15:00:15.971Z,15.33
2018-02-21T15:02:46.950Z,15.77
2018-02-21T15:05:17.845Z,15.50
2018-02-21T15:07:48.707Z,14.53
2018-02-21T15:10:19.657Z,14.30
2018-02-21T15:12:50.500Z,16.00
2018-02-21T15:15:21.359Z,14.43
2018-02-21T15:17:52.195Z,16.67
2018-02-21T15:20:23.087Z,15.87
2018-02-21T15:22:54.010Z,15.50
2018-02-21T15:25:24.894Z,15.27
2018-02-21T15:27:55.698Z,16.13
2018-02-21T15:30:26.665Z,16.47
2018-02-21T15:32:57.459Z,16.13
2018-02-21T15:35:28.295Z,14.97
2018-02-21T15:37:59.197Z,17.43
2018-02-21T15:40:30.142Z,16.90
2018-02-21T15:43:01.010Z,18.23
2018-02-21T15:45:31.886Z,18.40
2018-02-21T15:48:02.756Z,19.07
2018-02-21T15:50:33.582Z,18.27
2018-02-21T15:53:04.462Z,17.60
2018-02-21T15:55:35.346Z,19.50
2018-02-21T15:58:06.205Z,18.83
2018-02-21T16:00:37.067Z,20.53
2018-02-21T16:03:07.919Z,19.40
2018-02-21T16:05:38.756Z,20.90
2018-02-21T16:08:09.607Z,20.87
2018-02-21T16:10:40.475Z,21.20
2018-02-21T16:13:11.306Z,19.23
2018-02-21T16:15:42.217Z,20.77
2018-02-21T16:18:16.346Z,19.80
2018-02-21T16:20:47.320Z,19.50
2018-02-21T16:23:18.225Z,20.08
2018-02-21T16:25:49.090Z,23.20
2018-02-21T16:28:19.998Z,19.87
2018-02-21T16:30:50.901Z,20.87
2018-02-21T16:33:21.791Z,19.50
2018-02-21T16:35:53.640Z,19.30
2018-02-21T16:38:24.500Z,18.95
2018-02-21T16:40:55.479Z,19.73
2018-02-21T16:43:26.355Z,19.20
2018-02-21T16:45:57.314Z,20.70
2018-02-21T16:48:28.184Z,18.50
2018-02-21T16:50:59.091Z,19.73
2018-02-21T16:53:30.034Z,16.67
2018-02-21T16:56:00.970Z,20.27
2018-02-21T16:58:31.815Z,18.50
2018-02-21T17:01:02.800Z,16.23
2018-02-21T17:03:33.684Z,19.02
2018-02-21T17:06:05.518Z,17.47
2018-02-21T17:08:36.787Z,18.65
2018-02-21T17:11:11.166Z,17.60
2018-02-21T17:13:42.051Z,17.12
2018-02-21T17:16:12.938Z,17.20
2018-02-21T17:18:43.822Z,18.63
2018-02-21T17:21:14.790Z,17.17
2018-02-21T17:23:45.642Z,17.87
2018-02-21T17:26:16.510Z,19.67
2018-02-21T17:28:47.418Z,17.90
2018-02-21T17:31:18.285Z,20.27
2018-02-21T17:33:49.100Z,18.40
2018-02-21T17:36:19.997Z,17.43
2018-02-21T17:38:50.918Z,17.33
2018-02-21T17:41:31.722Z,19.17
2018-02-21T17:44:02.626Z,16.10
2018-02-21T17:46:33.529Z,18.47
2018-02-21T17:49:04.433Z,18.83
2018-02-21T17:51:35.342Z,19.07
2018-02-21T17:54:06.227Z,19.33
2018-02-21T17:56:37.117Z,18.47
2018-02-21T17:59:08.012Z,18.43
2018-02-21T18:01:38.911Z,17.37
2018-02-21T18:04:09.794Z,17.67
2018-02-21T18:06:40.725Z,18.80
2018-02-21T18:09:11.564Z,17.50
2018-02-21T18:11:42.514Z,19.50
2018-02-21T18:14:13.373Z,19.47
2018-02-21T18:16:44.276Z,17.70
2018-02-21T18:19:17.136Z,18.03
2018-02-21T18:21:48.763Z,17.42
2018-02-21T18:24:21.865Z,16.98
2018-02-21T18:26:56.366Z,17.70
2018-02-21T18:29:29.262Z,17.33
2018-02-21T18:32:00.210Z,15.63
2018-02-21T18:34:33.136Z,15.87
2018-02-21T18:37:04.056Z,15.57
2018-02-21T18:39:34.869Z,16.13
2018-02-21T18:42:05.747Z,17.07
2018-02-21T18:44:36.684Z,16.00
2018-02-21T18:47:07.656Z,16.30
2018-02-21T18:49:38.505Z,16.07
2018-02-21T18:52:09.318Z,16.63
2018-02-21T18:54:40.136Z,14.83
2018-02-21T18:57:10.959Z,14.67
2018-02-21T18:59:41.800Z,14.70
2018-02-21T19:02:12.638Z,14.60
2018-02-21T19:04:43.457Z,15.13
2018-02-21T19:07:14.367Z,14.83
2018-02-21T19:09:45.216Z,14.30
2018-02-21T19:12:16.072Z,15.10
2018-02-21T19:14:46.896Z,15.90
2018-02-21T19:17:18.765Z,16.63
2018-02-21T19:19:49.612Z,15.90
2018-02-21T19:22:20.460Z,13.87
2018-02-21T19:24:52.259Z,13.47
2018-02-21T19:27:23.073Z,16.37
2018-02-21T19:29:53.881Z,14.77
2018-02-21T19:32:24.688Z,14.77
2018-02-21T19:34:55.486Z,14.50
2018-02-21T19:37:26.339Z,15.70
2018-02-21T19:39:57.189Z,13.73
2018-02-21T19:42:28.010Z,12.37
2018-02-21T19:44:58.825Z,14.03
2018-02-21T19:47:29.747Z,12.60
2018-02-21T19:50:00.577Z,13.73
2018-02-21T19:52:31.407Z,12.70
2018-02-21T19:55:02.294Z,13.13
2018-02-21T19:57:33.124Z,12.90
2018-02-21T20:00:03.961Z,13.67
2018-02-21T20:02:34.823Z,15.50
2018-02-21T20:05:05.731Z,12.60
2018-02-21T20:07:36.633Z,11.50
2018-02-21T20:10:07.405Z,10.73
2018-02-21T20:12:38.271Z,12.60
2018-02-21T20:15:09.098Z,13.10
2018-02-21T20:17:39.988Z,13.20
2018-02-21T20:20:10.863Z,13.43
2018-02-21T20:22:41.824Z,13.27
2018-02-21T20:25:12.625Z,12.32
2018-02-21T20:27:43.482Z,11.73
2018-02-21T20:30:14.373Z,11.83
2018-02-21T20:32:45.255Z,12.70
2018-02-21T20:35:16.154Z,12.53
2018-02-21T20:37:47.048Z,12.87
2018-02-21T20:40:17.960Z,13.17
2018-02-21T20:42:48.851Z,11.80
2018-02-21T20:45:20.722Z,11.40
2018-02-21T20:47:51.558Z,11.40
2018-02-21T20:50:22.394Z,11.60
2018-02-21T20:52:54.293Z,13.13
2018-02-21T20:55:25.131Z,13.30
2018-02-21T20:57:55.981Z,12.90
2018-02-21T21:00:26.816Z,12.47
2018-02-21T21:02:57.692Z,13.37
2018-02-21T21:05:28.746Z,12.07
2018-02-21T21:07:59.618Z,12.25
2018-02-21T21:10:30.474Z,13.27
2018-02-21T21:13:01.381Z,12.73
2018-02-21T21:15:33.455Z,13.03
2018-02-21T21:18:04.321Z,12.48
2018-02-21T21:20:35.109Z,14.33
2018-02-21T21:23:05.980Z,11.93
2018-02-21T21:25:36.869Z,11.93
2018-02-21T21:28:07.780Z,14.07
2018-02-21T21:30:38.595Z,12.30
2018-02-21T21:33:09.529Z,13.73
2018-02-21T21:35:40.454Z,12.90
2018-02-21T21:38:11.345Z,13.10
2018-02-21T21:40:42.226Z,14.43
2018-02-21T21:43:13.122Z,13.50
2018-02-21T21:45:44.007Z,13.03
2018-02-21T21:48:14.863Z,13.03
2018-02-21T21:50:45.722Z,14.30
2018-02-21T21:53:16.531Z,14.03
2018-02-21T21:55:47.398Z,13.80
2018-02-21T21:58:18.384Z,13.60
2018-02-21T22:00:49.246Z,14.38
2018-02-21T22:03:20.075Z,15.50
2018-02-21T22:05:50.962Z,13.10
2018-02-21T22:08:21.822Z,14.60
2018-02-21T22:10:52.706Z,12.43
2018-02-21T22:13:23.667Z,16.67
2018-02-21T22:15:56.558Z,13.07
2018-02-21T22:18:27.398Z,13.98
2018-02-21T22:20:58.237Z,12.93
2018-02-21T22:23:29.097Z,14.27
2018-02-21T22:25:59.909Z,14.40
2018-02-21T22:28:30.801Z,14.37
2018-02-21T22:31:02.698Z,14.80
2018-02-21T22:33:33.563Z,13.70
2018-02-21T22:36:04.546Z,15.80
2018-02-21T22:38:35.377Z,14.98
2018-02-21T22:41:06.204Z,13.00
2018-02-21T22:43:37.013Z,14.60
2018-02-21T22:46:07.757Z,13.93
2018-02-21T22:48:38.551Z,14.00
2018-02-21T22:51:09.302Z,13.47
2018-02-21T22:53:40.057Z,13.40
2018-02-21T22:56:10.821Z,13.40
2018-02-21T22:58:41.591Z,13.00
2018-02-21T23:01:12.358Z,14.83
2018-02-21T23:03:43.165Z,15.73
2018-02-21T23:06:13.920Z,14.70
2018-02-21T23:08:44.681Z,13.73
2018-02-21T23:11:17.506Z,15.37
2018-02-21T23:13:48.267Z,13.73
2018-02-21T23:16:19.016Z,14.20
2018-02-21T23:18:50.841Z,13.97
2018-02-21T23:21:21.637Z,15.15
2018-02-21T23:23:52.417Z,13.03
2018-02-21T23:26:23.156Z,13.60
2018-02-21T23:28:53.933Z,16.07
2018-02-21T23:31:24.690Z,15.23
2018-02-21T23:33:55.490Z,15.60
2018-02-21T23:36:26.294Z,15.47
2018-02-21T23:38:57.086Z,16.43
2018-02-21T23:41:27.841Z,15.70
2018-02-21T23:43:58.628Z,15.50
2018-02-21T23:46:29.394Z,15.87
2018-02-21T23:49:00.170Z,16.20
2018-02-21T23:51:30.978Z,14.87
2018-02-21T23:54:01.754Z,16.63
2018-02-21T23:56:32.504Z,14.67
2018-02-21T23:59:03.268Z,16.27
